sensor_id;sensor_type;location;lat;lon;timestamp;temperature;humidity
47382;DHT22;33128;51.580;5.170;2022-09-19T20:45:20;19.80;99.90
47382;DHT22;33128;51.580;5.170;2022-09-19T20:47:46;16.60;99.90
47382;DHT22;33128;51.580;5.170;2022-09-19T20:50:12;15.30;99.90
47382;DHT22;33128;51.580;5.170;2022-09-19T20:52:37;14.60;99.90
47382;DHT22;33128;51.580;5.170;2022-09-19T20:55:04;14.40;99.90
47382;DHT22;33128;51.580;5.170;2022-09-19T20:57:30;14.40;99.90
47382;DHT22;33128;51.580;5.170;2022-09-19T20:59:55;14.10;99.90
47382;DHT22;33128;51.580;5.170;2022-09-19T21:02:21;14.10;99.90
47382;DHT22;33128;51.580;5.170;2022-09-19T21:04:47;13.90;99.90
47382;DHT22;33128;51.580;5.170;2022-09-19T21:07:12;13.70;99.90
47382;DHT22;33128;51.580;5.170;2022-09-19T21:09:40;13.60;99.90
47382;DHT22;33128;51.580;5.170;2022-09-19T21:12:07;13.60;99.90
47382;DHT22;33128;51.580;5.170;2022-09-19T21:14:32;13.40;99.90
47382;DHT22;33128;51.580;5.170;2022-09-19T21:16:58;13.40;99.90
47382;DHT22;33128;51.580;5.170;2022-09-19T21:19:23;13.40;99.90
47382;DHT22;33128;51.580;5.170;2022-09-19T21:21:49;13.40;99.90
47382;DHT22;33128;51.580;5.170;2022-09-19T21:24:14;13.30;99.90
47382;DHT22;33128;51.580;5.170;2022-09-19T21:26:40;13.30;99.90
47382;DHT22;33128;51.580;5.170;2022-09-19T21:29:06;13.30;99.90
47382;DHT22;33128;51.580;5.170;2022-09-19T21:31:32;13.30;99.90
47382;DHT22;33128;51.580;5.170;2022-09-19T21:33:59;13.20;99.90
47382;DHT22;33128;51.580;5.170;2022-09-19T21:36:25;13.20;99.90
47382;DHT22;33128;51.580;5.170;2022-09-19T21:38:54;13.30;99.90
47382;DHT22;33128;51.580;5.170;2022-09-19T21:41:23;13.30;99.90
47382;DHT22;33128;51.580;5.170;2022-09-19T21:43:53;13.20;99.90
47382;DHT22;33128;51.580;5.170;2022-09-19T21:46:19;13.10;99.90
47382;DHT22;33128;51.580;5.170;2022-09-19T21:48:46;13.00;99.90
47382;DHT22;33128;51.580;5.170;2022-09-19T21:53:37;12.80;99.90
47382;DHT22;33128;51.580;5.170;2022-09-19T21:56:03;12.80;99.90
47382;DHT22;33128;51.580;5.170;2022-09-19T21:58:29;12.70;99.90
47382;DHT22;33128;51.580;5.170;2022-09-19T22:00:55;12.60;99.90
47382;DHT22;33128;51.580;5.170;2022-09-19T22:03:30;12.60;99.90
47382;DHT22;33128;51.580;5.170;2022-09-19T22:05:56;12.40;99.90
47382;DHT22;33128;51.580;5.170;2022-09-19T22:08:22;12.40;99.90
47382;DHT22;33128;51.580;5.170;2022-09-19T22:10:47;12.70;99.90
47382;DHT22;33128;51.580;5.170;2022-09-19T22:13:13;12.50;99.90
47382;DHT22;33128;51.580;5.170;2022-09-19T22:15:38;12.50;99.90
47382;DHT22;33128;51.580;5.170;2022-09-19T22:18:04;12.60;99.90
47382;DHT22;33128;51.580;5.170;2022-09-19T22:20:29;12.70;99.90
47382;DHT22;33128;51.580;5.170;2022-09-19T22:22:55;12.80;99.90
47382;DHT22;33128;51.580;5.170;2022-09-19T22:25:20;12.60;99.90
47382;DHT22;33128;51.580;5.170;2022-09-19T22:27:46;12.60;99.90
47382;DHT22;33128;51.580;5.170;2022-09-19T22:30:11;12.60;99.90
47382;DHT22;33128;51.580;5.170;2022-09-19T22:32:37;12.60;99.90
47382;DHT22;33128;51.580;5.170;2022-09-19T22:35:03;12.60;99.90
47382;DHT22;33128;51.580;5.170;2022-09-19T22:37:31;12.60;99.90
47382;DHT22;33128;51.580;5.170;2022-09-19T22:39:59;12.60;99.90
47382;DHT22;33128;51.580;5.170;2022-09-19T22:42:24;12.70;99.90
47382;DHT22;33128;51.580;5.170;2022-09-19T22:44:50;12.70;99.90
47382;DHT22;33128;51.580;5.170;2022-09-19T22:47:15;12.80;99.90
47382;DHT22;33128;51.580;5.170;2022-09-19T22:49:41;12.80;99.90
47382;DHT22;33128;51.580;5.170;2022-09-19T22:52:07;12.90;99.90
47382;DHT22;33128;51.580;5.170;2022-09-19T22:54:32;12.80;99.90
47382;DHT22;33128;51.580;5.170;2022-09-19T22:56:59;12.70;99.90
47382;DHT22;33128;51.580;5.170;2022-09-19T22:59:25;12.60;99.90
47382;DHT22;33128;51.580;5.170;2022-09-19T23:01:50;12.60;99.90
47382;DHT22;33128;51.580;5.170;2022-09-19T23:04:17;12.60;99.90
47382;DHT22;33128;51.580;5.170;2022-09-19T23:06:43;12.70;99.90
47382;DHT22;33128;51.580;5.170;2022-09-19T23:09:13;12.70;99.90
47382;DHT22;33128;51.580;5.170;2022-09-19T23:11:39;12.60;99.90
47382;DHT22;33128;51.580;5.170;2022-09-19T23:14:06;12.60;99.90
47382;DHT22;33128;51.580;5.170;2022-09-19T23:16:32;12.50;99.90
47382;DHT22;33128;51.580;5.170;2022-09-19T23:19:00;12.50;99.90
47382;DHT22;33128;51.580;5.170;2022-09-19T23:21:27;12.40;99.90
47382;DHT22;33128;51.580;5.170;2022-09-19T23:23:53;12.50;99.90
47382;DHT22;33128;51.580;5.170;2022-09-19T23:26:19;12.40;99.90
47382;DHT22;33128;51.580;5.170;2022-09-19T23:28:45;12.50;99.90
47382;DHT22;33128;51.580;5.170;2022-09-19T23:31:11;12.40;99.90
47382;DHT22;33128;51.580;5.170;2022-09-19T23:33:37;12.40;99.90
47382;DHT22;33128;51.580;5.170;2022-09-19T23:36:03;12.50;99.90
47382;DHT22;33128;51.580;5.170;2022-09-19T23:38:30;12.50;99.90
47382;DHT22;33128;51.580;5.170;2022-09-19T23:41:05;12.50;99.90
47382;DHT22;33128;51.580;5.170;2022-09-19T23:43:31;12.50;99.90
47382;DHT22;33128;51.580;5.170;2022-09-19T23:45:57;12.50;99.90
47382;DHT22;33128;51.580;5.170;2022-09-19T23:48:23;12.60;99.90
47382;DHT22;33128;51.580;5.170;2022-09-19T23:50:52;12.40;99.90
47382;DHT22;33128;51.580;5.170;2022-09-19T23:53:18;12.30;99.90
47382;DHT22;33128;51.580;5.170;2022-09-19T23:55:44;12.40;99.90
47382;DHT22;33128;51.580;5.170;2022-09-19T23:58:10;12.40;99.90
